This is the latest recevied weather packets stored in our database for station/object DL9SEC-13. If no packets are shown the sender has not sent any weather packets the latest 10 day(s).
| Time | Temp. | Humidity | Pressure | Rain* | Wind** | Luminosity | Snow |
|---|---|---|---|---|---|---|---|
| 1777874103 | 13.33° C | 67% | 1018 hPa | 0 mm | - | - | - |
| 1777873204 | 13.33° C | 67% | 1018.1 hPa | 0 mm | - | - | - |
| 1777872303 | 12.78° C | 69% | 1018.1 hPa | 0 mm | - | - | - |
| 1777871404 | 12.22° C | 69% | 1018.1 hPa | 0 mm | - | - | - |
| 1777870502 | 11.67° C | 72% | 1018.1 hPa | 0 mm | - | - | - |
| 1777869603 | 11.67° C | 73% | 1018 hPa | 0 mm | - | - | - |
| 1777868703 | 11.11° C | 73% | 1018 hPa | 0 mm | - | - | - |
| 1777867803 | 11.67° C | 72% | 1017.9 hPa | 0 mm | - | - | - |
| 1777866903 | 12.22° C | 69% | 1017.9 hPa | 0 mm | - | - | - |
| 1777866003 | 12.22° C | 67% | 1018 hPa | 0 mm | - | - | - |
| 1777865103 | 12.22° C | 67% | 1017.9 hPa | 0 mm | - | - | - |
| 1777864202 | 12.22° C | 66% | 1017.9 hPa | 0 mm | - | - | - |
| 1777863302 | 12.22° C | 66% | 1017.9 hPa | 0 mm | - | - | - |
| 1777862403 | 12.78° C | 65% | 1017.9 hPa | 0 mm | - | - | - |
| 1777861503 | 12.78° C | 64% | 1017.9 hPa | 0 mm | - | - | - |
| 1777860603 | 12.78° C | 63% | 1018 hPa | 0 mm | - | - | - |
| 1777859703 | 12.78° C | 64% | 1017.9 hPa | 0 mm | - | - | - |
| 1777858802 | 12.78° C | 65% | 1017.9 hPa | 0 mm | - | - | - |
| 1777857903 | 12.22° C | 66% | 1017.9 hPa | 0 mm | - | - | - |
| 1777857003 | 12.22° C | 67% | 1017.9 hPa | 0 mm | - | - | - |
| 1777856102 | 12.22° C | 67% | 1018 hPa | 0 mm | - | - | - |
| 1777855203 | 12.22° C | 67% | 1018.1 hPa | 0 mm | - | - | - |
| 1777854302 | 12.22° C | 68% | 1018 hPa | 0 mm | - | - | - |
| 1777853403 | 12.22° C | 68% | 1018.3 hPa | 0 mm | - | - | - |
| 1777852503 | 12.22° C | 68% | 1018.3 hPa | 0 mm | - | - | - |
* Rain latest hour (hover to see other rain measurements)
** Current wind speed in m/s (hover to see current wind gust speed)